Погода Славгущина 2 недели

Тверская область, Россия

25 мая-07 июня
  • 25мая
    Сегодня
    +10°
    +25°
    Ясно и безоблачно
    ВремяПогодаТемператураВлажностьДавлениеВетер, м/сВероятность осадков
    00:00Ясно и безоблачно+11°C53 %761 мм3.3 м/с2 %
    03:00Ясно и безоблачно+9°C57 %761 мм3.2 м/с2 %
    06:00Ясно и безоблачно+12°C55 %761 мм3.4 м/с2 %
    09:00Небольшая облачность+20°C44 %760 мм3.7 м/с2 %
    12:00Практически безоблачно+23°C30 %759 мм4.5 м/с2 %
    15:00Ясно и безоблачно+25°C31 %758 мм4.4 м/с2 %
    18:00Ясно и безоблачно+24°C33 %757 мм4.2 м/с2 %
    21:00Ясно и безоблачно+19°C45 %757 мм3.2 м/с2 %
  • 26мая
    Воскресенье
    +6°
    +22°
    Небольшая облачность
    ВремяПогодаТемператураВлажностьДавлениеВетер, м/сВероятность осадков
    00:00Практически безоблачно+14°C56 %757 мм2.4 м/с2 %
    03:00Ясно и безоблачно+11°C82 %757 мм1.7 м/с1 %
    06:00Небольшая облачность+14°C88 %758 мм2.2 м/с2 %
    09:00Облачно с прояснениями+19°C64 %758 мм3.6 м/с8 %
    12:00Облачно с прояснениями+21°C50 %759 мм3.5 м/с11 %
    15:00Небольшая облачность+22°C32 %759 мм3.7 м/с11 %
    18:00Практически безоблачно+21°C36 %759 мм3.3 м/с5 %
    21:00Ясно и безоблачно+15°C41 %760 мм2.9 м/с2 %
  • 27мая
    Понедельник
    +8°
    +23°
    Ясно и безоблачно
    ВремяПогодаТемператураВлажностьДавлениеВетер, м/сВероятность осадков
    00:00Ясно и безоблачно+9°C51 %760 мм2.4 м/с2 %
    03:00Ясно и безоблачно+6°C64 %761 мм2.5 м/с2 %
    06:00Ясно и безоблачно+10°C64 %761 мм2.5 м/с2 %
    09:00Практически безоблачно+18°C46 %761 мм2.2 м/с2 %
    12:00Ясно и безоблачно+21°C34 %761 мм2.2 м/с2 %
    15:00Ясно и безоблачно+22°C31 %760 мм1.8 м/с2 %
    18:00Ясно и безоблачно+23°C33 %759 мм1.6 м/с2 %
    21:00Ясно и безоблачно+17°C47 %758 мм2.3 м/с2 %
  • 28мая
    Вторник
    +11°
    +27°
    Облачно с прояснениями
    ВремяПогодаТемператураВлажностьДавлениеВетер, м/сВероятность осадков
    00:00Ясно и безоблачно+11°C55 %757 мм2.3 м/с2 %
    03:00Ясно и безоблачно+9°C64 %757 мм2.3 м/с2 %
    06:00Ясно и безоблачно+12°C69 %757 мм1.5 м/с2 %
    09:00Ясно и безоблачно+22°C45 %757 мм1.0 м/с2 %
    12:00Практически безоблачно+25°C35 %756 мм0.6 м/с3 %
    15:00Облачно с прояснениями+26°C32 %755 мм1.0 м/с8 %
    18:00Небольшая облачность+26°C34 %754 мм1.0 м/с15 %
    21:00Ясно и безоблачно+20°C49 %753 мм0.8 м/с9 %
  • 29мая
    Среда
    +10°
    +28°
    Облачно с прояснениями
    ВремяПогодаТемператураВлажностьДавлениеВетер, м/сВероятность осадков
    00:00Ясно и безоблачно+14°C67 %753 мм2.3 м/с2 %
    03:00Практически безоблачно+11°C80 %753 мм2.4 м/с2 %
    06:00Ясно и безоблачно+15°C76 %752 мм2.0 м/с8 %
    09:00Ясно и безоблачно+23°C57 %752 мм0.3 м/с14 %
    12:00Практически безоблачно+26°C40 %752 мм1.1 м/с43 %
    15:00Облачно с прояснениями+28°C39 %751 мм0.7 м/с43 %
    18:00Небольшая облачность, возможен дождь с грозой+23°C73 %751 мм1.9 м/с48 %
    21:00Облачно с прояснениями+18°C84 %751 мм0.9 м/с13 %
Мы используем cookies
Соглашаюсь